sensor_id;sensor_type;location;lat;lon;timestamp;pressure;altitude;pressure_sealevel;temperature;humidity
76519;BME280;67029;51.054;13.798;2023-07-16T00:00:17;99654.80;;;29.18;39.37
76519;BME280;67029;51.054;13.798;2023-07-16T00:02:47;99652.97;;;29.18;39.37
76519;BME280;67029;51.054;13.798;2023-07-16T00:05:18;99663.76;;;29.18;39.50
76519;BME280;67029;51.054;13.798;2023-07-16T00:07:48;99676.32;;;29.16;39.47
76519;BME280;67029;51.054;13.798;2023-07-16T00:10:18;99693.05;;;29.15;39.52
76519;BME280;67029;51.054;13.798;2023-07-16T00:12:48;99695.35;;;29.13;39.26
76519;BME280;67029;51.054;13.798;2023-07-16T00:15:18;99698.61;;;29.06;39.18
76519;BME280;67029;51.054;13.798;2023-07-16T00:17:48;99717.02;;;29.04;39.70
76519;BME280;67029;51.054;13.798;2023-07-16T00:20:18;99739.41;;;29.03;39.48
76519;BME280;67029;51.054;13.798;2023-07-16T00:22:48;99793.36;;;28.89;40.37
76519;BME280;67029;51.054;13.798;2023-07-16T00:25:18;99875.38;;;28.71;40.30
76519;BME280;67029;51.054;13.798;2023-07-16T00:27:48;99872.92;;;28.62;41.59
76519;BME280;67029;51.054;13.798;2023-07-16T00:30:18;99844.33;;;28.49;42.09
76519;BME280;67029;51.054;13.798;2023-07-16T00:32:48;99854.28;;;28.37;42.17
76519;BME280;67029;51.054;13.798;2023-07-16T00:35:18;99903.50;;;28.28;41.84
76519;BME280;67029;51.054;13.798;2023-07-16T00:37:48;99904.81;;;28.30;42.03
76519;BME280;67029;51.054;13.798;2023-07-16T00:40:18;99919.62;;;28.31;42.03
76519;BME280;67029;51.054;13.798;2023-07-16T00:42:48;99920.65;;;28.28;41.72
76519;BME280;67029;51.054;13.798;2023-07-16T00:45:18;99927.67;;;28.31;42.09
76519;BME280;67029;51.054;13.798;2023-07-16T00:47:48;99943.55;;;28.25;42.44
76519;BME280;67029;51.054;13.798;2023-07-16T00:50:19;99941.80;;;28.20;42.73
76519;BME280;67029;51.054;13.798;2023-07-16T00:52:49;99942.03;;;28.04;43.25
76519;BME280;67029;51.054;13.798;2023-07-16T00:55:20;99947.77;;;28.04;43.17
76519;BME280;67029;51.054;13.798;2023-07-16T00:57:50;99947.97;;;28.06;43.24
76519;BME280;67029;51.054;13.798;2023-07-16T01:00:20;99956.03;;;27.99;43.37
76519;BME280;67029;51.054;13.798;2023-07-16T01:02:50;99958.95;;;27.93;44.29
76519;BME280;67029;51.054;13.798;2023-07-16T01:05:22;99956.86;;;27.88;43.74
76519;BME280;67029;51.054;13.798;2023-07-16T01:07:58;99960.95;;;27.85;43.76
76519;BME280;67029;51.054;13.798;2023-07-16T01:10:22;99962.80;;;27.85;44.01
76519;BME280;67029;51.054;13.798;2023-07-16T01:12:56;99955.69;;;27.87;43.73
76519;BME280;67029;51.054;13.798;2023-07-16T01:15:23;99945.76;;;27.86;44.37
76519;BME280;67029;51.054;13.798;2023-07-16T01:17:53;99937.67;;;27.85;44.84
76519;BME280;67029;51.054;13.798;2023-07-16T01:20:24;99930.12;;;27.81;44.65
76519;BME280;67029;51.054;13.798;2023-07-16T01:23:19;99914.09;;;27.81;44.50
76519;BME280;67029;51.054;13.798;2023-07-16T01:28:21;99913.90;;;27.78;44.45
76519;BME280;67029;51.054;13.798;2023-07-16T01:30:26;99909.62;;;27.75;44.73
76519;BME280;67029;51.054;13.798;2023-07-16T01:32:57;99898.89;;;27.72;45.06
76519;BME280;67029;51.054;13.798;2023-07-16T01:35:27;99884.27;;;27.75;44.80
76519;BME280;67029;51.054;13.798;2023-07-16T01:37:57;99872.72;;;27.82;44.23
76519;BME280;67029;51.054;13.798;2023-07-16T01:40:27;99863.97;;;27.86;44.34
76519;BME280;67029;51.054;13.798;2023-07-16T01:42:57;99864.65;;;27.88;44.32
76519;BME280;67029;51.054;13.798;2023-07-16T01:45:27;99859.92;;;27.81;44.65
76519;BME280;67029;51.054;13.798;2023-07-16T01:48:31;99880.64;;;27.86;44.20
76519;BME280;67029;51.054;13.798;2023-07-16T01:50:28;99885.39;;;27.82;44.23
76519;BME280;67029;51.054;13.798;2023-07-16T01:52:58;99907.66;;;27.81;44.71
76519;BME280;67029;51.054;13.798;2023-07-16T01:55:28;99912.95;;;27.79;44.75
76519;BME280;67029;51.054;13.798;2023-07-16T01:57:58;99900.59;;;27.79;44.56
76519;BME280;67029;51.054;13.798;2023-07-16T02:00:28;99896.38;;;27.82;44.58
76519;BME280;67029;51.054;13.798;2023-07-16T02:02:58;99872.78;;;27.79;44.58
76519;BME280;67029;51.054;13.798;2023-07-16T02:05:28;99874.67;;;27.76;44.60
76519;BME280;67029;51.054;13.798;2023-07-16T02:07:58;99891.40;;;27.76;44.87
76519;BME280;67029;51.054;13.798;2023-07-16T02:10:28;99910.71;;;27.78;45.14
76519;BME280;67029;51.054;13.798;2023-07-16T02:12:58;99901.41;;;27.75;44.91
76519;BME280;67029;51.054;13.798;2023-07-16T02:15:28;99908.85;;;27.61;46.51
76519;BME280;67029;51.054;13.798;2023-07-16T02:17:58;99920.09;;;27.48;45.92
76519;BME280;67029;51.054;13.798;2023-07-16T02:20:28;99952.52;;;27.29;47.13
76519;BME280;67029;51.054;13.798;2023-07-16T02:22:58;99960.47;;;27.23;47.87
76519;BME280;67029;51.054;13.798;2023-07-16T02:25:28;99959.80;;;27.21;48.39
76519;BME280;67029;51.054;13.798;2023-07-16T02:27:58;99963.47;;;27.17;48.12
76519;BME280;67029;51.054;13.798;2023-07-16T02:30:28;99965.34;;;27.14;48.30
76519;BME280;67029;51.054;13.798;2023-07-16T02:32:58;99961.47;;;27.11;48.21
76519;BME280;67029;51.054;13.798;2023-07-16T02:35:29;99972.48;;;27.00;48.35
76519;BME280;67029;51.054;13.798;2023-07-16T02:37:58;99995.01;;;27.06;49.24
76519;BME280;67029;51.054;13.798;2023-07-16T02:40:29;99971.70;;;27.13;48.42
76519;BME280;67029;51.054;13.798;2023-07-16T02:42:59;99971.20;;;27.09;48.14
76519;BME280;67029;51.054;13.798;2023-07-16T02:45:29;99986.74;;;27.09;48.28
76519;BME280;67029;51.054;13.798;2023-07-16T02:47:59;100005.27;;;27.04;49.31
76519;BME280;67029;51.054;13.798;2023-07-16T02:50:29;100024.02;;;26.91;49.33
76519;BME280;67029;51.054;13.798;2023-07-16T02:52:59;100038.39;;;26.92;49.89
76519;BME280;67029;51.054;13.798;2023-07-16T02:55:29;100050.39;;;26.76;49.90
76519;BME280;67029;51.054;13.798;2023-07-16T02:57:59;100055.23;;;26.78;50.37
76519;BME280;67029;51.054;13.798;2023-07-16T03:00:29;100068.81;;;26.80;50.74
76519;BME280;67029;51.054;13.798;2023-07-16T03:02:59;100065.91;;;26.79;50.63
76519;BME280;67029;51.054;13.798;2023-07-16T03:05:29;100083.27;;;26.74;50.40
76519;BME280;67029;51.054;13.798;2023-07-16T03:07:59;100091.58;;;26.72;51.16
76519;BME280;67029;51.054;13.798;2023-07-16T03:10:29;100092.98;;;26.66;51.66
76519;BME280;67029;51.054;13.798;2023-07-16T03:12:59;100100.31;;;26.64;51.53
76519;BME280;67029;51.054;13.798;2023-07-16T03:15:29;100082.47;;;26.54;51.62
76519;BME280;67029;51.054;13.798;2023-07-16T03:17:59;100068.66;;;26.44;51.40
76519;BME280;67029;51.054;13.798;2023-07-16T03:20:29;100066.70;;;26.41;51.71
76519;BME280;67029;51.054;13.798;2023-07-16T03:22:59;100075.72;;;26.44;51.75
76519;BME280;67029;51.054;13.798;2023-07-16T03:25:29;100095.56;;;26.44;52.12
76519;BME280;67029;51.054;13.798;2023-07-16T03:27:59;100104.19;;;26.45;52.04
76519;BME280;67029;51.054;13.798;2023-07-16T03:30:32;100117.59;;;26.26;52.66
76519;BME280;67029;51.054;13.798;2023-07-16T03:32:59;100120.09;;;26.13;52.91
76519;BME280;67029;51.054;13.798;2023-07-16T03:35:30;100122.81;;;26.15;53.06
76519;BME280;67029;51.054;13.798;2023-07-16T03:38:00;100121.80;;;26.18;53.14
76519;BME280;67029;51.054;13.798;2023-07-16T03:40:30;100121.98;;;26.20;53.50
76519;BME280;67029;51.054;13.798;2023-07-16T03:43:00;100105.91;;;26.16;53.56
76519;BME280;67029;51.054;13.798;2023-07-16T03:45:30;100100.20;;;26.14;53.63
76519;BME280;67029;51.054;13.798;2023-07-16T03:48:00;100083.22;;;26.15;54.36
76519;BME280;67029;51.054;13.798;2023-07-16T03:50:30;100068.03;;;26.13;54.58
76519;BME280;67029;51.054;13.798;2023-07-16T03:53:00;100050.81;;;26.09;54.11
76519;BME280;67029;51.054;13.798;2023-07-16T03:55:30;100057.92;;;26.09;54.66
76519;BME280;67029;51.054;13.798;2023-07-16T03:58:00;100057.41;;;26.11;54.86
76519;BME280;67029;51.054;13.798;2023-07-16T04:00:30;100048.69;;;26.06;53.86
76519;BME280;67029;51.054;13.798;2023-07-16T04:03:00;100043.66;;;26.05;53.97
76519;BME280;67029;51.054;13.798;2023-07-16T04:05:30;100020.11;;;26.05;54.29
76519;BME280;67029;51.054;13.798;2023-07-16T04:08:01;100006.60;;;26.03;54.15
76519;BME280;67029;51.054;13.798;2023-07-16T04:10:31;100014.00;;;26.04;54.64
76519;BME280;67029;51.054;13.798;2023-07-16T04:13:01;100006.48;;;26.01;54.82
76519;BME280;67029;51.054;13.798;2023-07-16T04:15:31;100006.23;;;26.00;55.14
76519;BME280;67029;51.054;13.798;2023-07-16T04:18:01;100009.75;;;25.89;54.82
76519;BME280;67029;51.054;13.798;2023-07-16T04:20:31;99999.95;;;25.84;54.66
76519;BME280;67029;51.054;13.798;2023-07-16T04:23:01;99988.30;;;25.86;54.86
76519;BME280;67029;51.054;13.798;2023-07-16T04:25:31;99995.17;;;25.88;55.08
76519;BME280;67029;51.054;13.798;2023-07-16T04:28:01;99984.48;;;25.89;55.16
76519;BME280;67029;51.054;13.798;2023-07-16T04:30:31;99991.64;;;25.89;54.91
76519;BME280;67029;51.054;13.798;2023-07-16T04:33:01;100008.82;;;25.90;54.95
76519;BME280;67029;51.054;13.798;2023-07-16T04:35:32;100012.05;;;25.75;55.41
76519;BME280;67029;51.054;13.798;2023-07-16T04:38:02;100011.64;;;25.32;57.34
76519;BME280;67029;51.054;13.798;2023-07-16T04:40:32;100015.78;;;25.02;57.80
76519;BME280;67029;51.054;13.798;2023-07-16T04:43:02;100015.45;;;24.78;57.93
76519;BME280;67029;51.054;13.798;2023-07-16T04:45:32;100009.25;;;24.88;57.50
76519;BME280;67029;51.054;13.798;2023-07-16T04:48:02;100000.80;;;25.00;57.36
76519;BME280;67029;51.054;13.798;2023-07-16T04:50:32;100004.72;;;25.14;57.31
76519;BME280;67029;51.054;13.798;2023-07-16T04:53:02;100020.59;;;25.22;57.17
76519;BME280;67029;51.054;13.798;2023-07-16T04:55:36;100030.80;;;25.16;57.28
76519;BME280;67029;51.054;13.798;2023-07-16T04:58:03;100035.70;;;25.17;58.01
76519;BME280;67029;51.054;13.798;2023-07-16T05:00:33;100031.72;;;25.20;58.21
76519;BME280;67029;51.054;13.798;2023-07-16T05:03:03;100028.92;;;25.02;58.35
76519;BME280;67029;51.054;13.798;2023-07-16T05:05:33;100023.50;;;25.10;58.36
76519;BME280;67029;51.054;13.798;2023-07-16T05:08:04;100016.02;;;24.92;59.48
76519;BME280;67029;51.054;13.798;2023-07-16T05:10:34;100001.97;;;24.68;60.09
76519;BME280;67029;51.054;13.798;2023-07-16T05:13:04;99975.53;;;24.67;59.80
76519;BME280;67029;51.054;13.798;2023-07-16T05:15:34;99961.48;;;24.79;59.39
76519;BME280;67029;51.054;13.798;2023-07-16T05:18:04;99949.87;;;24.93;59.12
76519;BME280;67029;51.054;13.798;2023-07-16T05:20:34;99941.58;;;25.06;58.50
76519;BME280;67029;51.054;13.798;2023-07-16T05:23:04;99938.34;;;25.17;58.44
76519;BME280;67029;51.054;13.798;2023-07-16T05:25:34;99946.64;;;25.26;57.97
76519;BME280;67029;51.054;13.798;2023-07-16T05:28:04;99956.66;;;25.31;57.82
76519;BME280;67029;51.054;13.798;2023-07-16T05:30:34;99964.06;;;25.20;58.04
76519;BME280;67029;51.054;13.798;2023-07-16T05:33:04;99988.38;;;25.16;59.23
76519;BME280;67029;51.054;13.798;2023-07-16T05:35:34;100019.33;;;25.06;58.42
76519;BME280;67029;51.054;13.798;2023-07-16T05:38:04;100024.56;;;25.14;58.32
76519;BME280;67029;51.054;13.798;2023-07-16T05:40:34;100000.14;;;25.23;57.79
76519;BME280;67029;51.054;13.798;2023-07-16T05:43:04;100007.82;;;25.00;58.83
76519;BME280;67029;51.054;13.798;2023-07-16T05:45:34;100017.08;;;25.07;58.38
76519;BME280;67029;51.054;13.798;2023-07-16T05:48:05;100024.98;;;25.09;58.24
76519;BME280;67029;51.054;13.798;2023-07-16T05:50:35;100037.48;;;25.17;57.85
76519;BME280;67029;51.054;13.798;2023-07-16T05:53:05;100048.12;;;25.30;57.68
76519;BME280;67029;51.054;13.798;2023-07-16T05:55:35;100058.23;;;25.43;57.39
76519;BME280;67029;51.054;13.798;2023-07-16T05:58:05;100055.80;;;25.55;57.26
76519;BME280;67029;51.054;13.798;2023-07-16T06:00:35;100063.47;;;25.53;57.23
76519;BME280;67029;51.054;13.798;2023-07-16T06:03:05;100073.62;;;25.55;57.10
76519;BME280;67029;51.054;13.798;2023-07-16T06:05:35;100079.97;;;25.67;56.84
76519;BME280;67029;51.054;13.798;2023-07-16T06:08:05;100087.60;;;25.83;56.98
76519;BME280;67029;51.054;13.798;2023-07-16T06:10:35;100097.04;;;25.99;57.04
76519;BME280;67029;51.054;13.798;2023-07-16T06:13:05;100098.30;;;26.13;56.19
76519;BME280;67029;51.054;13.798;2023-07-16T06:15:36;100099.58;;;26.28;56.23
76519;BME280;67029;51.054;13.798;2023-07-16T06:18:06;100109.55;;;26.41;55.77
76519;BME280;67029;51.054;13.798;2023-07-16T06:20:36;100120.81;;;26.58;55.48
76519;BME280;67029;51.054;13.798;2023-07-16T06:23:06;100119.42;;;26.67;55.36
76519;BME280;67029;51.054;13.798;2023-07-16T06:25:36;100121.91;;;26.79;55.62
76519;BME280;67029;51.054;13.798;2023-07-16T06:28:06;100132.97;;;26.87;55.32
76519;BME280;67029;51.054;13.798;2023-07-16T06:30:36;100131.59;;;26.91;54.78
76519;BME280;67029;51.054;13.798;2023-07-16T06:33:07;100135.91;;;27.08;54.36
76519;BME280;67029;51.054;13.798;2023-07-16T06:35:37;100138.09;;;27.22;54.13
76519;BME280;67029;51.054;13.798;2023-07-16T06:38:07;100137.77;;;27.30;54.01
76519;BME280;67029;51.054;13.798;2023-07-16T06:40:37;100136.98;;;27.40;53.96
76519;BME280;67029;51.054;13.798;2023-07-16T06:43:07;100140.89;;;27.52;53.65
76519;BME280;67029;51.054;13.798;2023-07-16T06:45:37;100136.95;;;27.59;53.57
76519;BME280;67029;51.054;13.798;2023-07-16T06:48:07;100137.80;;;27.64;53.28
76519;BME280;67029;51.054;13.798;2023-07-16T06:50:37;100133.58;;;27.63;52.90
76519;BME280;67029;51.054;13.798;2023-07-16T06:53:07;100129.69;;;27.67;52.60
76519;BME280;67029;51.054;13.798;2023-07-16T06:55:37;100128.86;;;27.71;52.43
76519;BME280;67029;51.054;13.798;2023-07-16T06:58:10;100137.27;;;27.84;52.32
76519;BME280;67029;51.054;13.798;2023-07-16T07:00:37;100142.97;;;27.87;51.58
76519;BME280;67029;51.054;13.798;2023-07-16T07:03:07;100132.52;;;27.83;51.50
76519;BME280;67029;51.054;13.798;2023-07-16T07:05:40;100144.15;;;27.94;51.02
76519;BME280;67029;51.054;13.798;2023-07-16T07:08:08;100148.03;;;27.92;50.83
76519;BME280;67029;51.054;13.798;2023-07-16T07:10:38;100138.14;;;27.90;50.66
76519;BME280;67029;51.054;13.798;2023-07-16T07:13:08;100133.47;;;27.88;50.25
76519;BME280;67029;51.054;13.798;2023-07-16T07:15:38;100140.75;;;27.81;50.43
76519;BME280;67029;51.054;13.798;2023-07-16T07:18:08;100147.51;;;27.84;49.92
76519;BME280;67029;51.054;13.798;2023-07-16T07:20:39;100132.36;;;27.82;49.77
76519;BME280;67029;51.054;13.798;2023-07-16T07:23:09;100133.98;;;27.88;49.19
76519;BME280;67029;51.054;13.798;2023-07-16T07:25:39;100144.89;;;27.99;48.56
76519;BME280;67029;51.054;13.798;2023-07-16T07:28:09;100143.83;;;28.00;48.30
76519;BME280;67029;51.054;13.798;2023-07-16T07:30:39;100144.14;;;27.97;47.93
76519;BME280;67029;51.054;13.798;2023-07-16T07:33:09;100149.45;;;28.01;48.02
76519;BME280;67029;51.054;13.798;2023-07-16T07:35:39;100151.09;;;28.06;47.45
76519;BME280;67029;51.054;13.798;2023-07-16T07:38:09;100148.06;;;28.13;46.46
76519;BME280;67029;51.054;13.798;2023-07-16T07:40:42;100156.53;;;28.06;46.91
76519;BME280;67029;51.054;13.798;2023-07-16T07:43:10;100167.23;;;28.11;46.96
76519;BME280;67029;51.054;13.798;2023-07-16T07:45:40;100160.28;;;28.24;46.63
76519;BME280;67029;51.054;13.798;2023-07-16T07:48:10;100166.13;;;28.37;46.39
76519;BME280;67029;51.054;13.798;2023-07-16T07:50:40;100168.79;;;28.46;43.70
76519;BME280;67029;51.054;13.798;2023-07-16T07:53:10;100188.04;;;28.51;42.81
76519;BME280;67029;51.054;13.798;2023-07-16T07:55:40;100186.27;;;28.48;42.55
76519;BME280;67029;51.054;13.798;2023-07-16T07:58:10;100190.89;;;28.56;41.27
76519;BME280;67029;51.054;13.798;2023-07-16T08:00:40;100195.23;;;28.66;41.97
76519;BME280;67029;51.054;13.798;2023-07-16T08:03:10;100201.41;;;28.78;42.22
76519;BME280;67029;51.054;13.798;2023-07-16T08:05:40;100198.64;;;28.93;42.12
76519;BME280;67029;51.054;13.798;2023-07-16T08:08:10;100191.01;;;29.07;41.98
76519;BME280;67029;51.054;13.798;2023-07-16T08:10:40;100193.80;;;29.07;41.45
76519;BME280;67029;51.054;13.798;2023-07-16T08:13:10;100187.59;;;29.04;41.52
76519;BME280;67029;51.054;13.798;2023-07-16T08:15:40;100191.70;;;29.10;41.67
76519;BME280;67029;51.054;13.798;2023-07-16T08:18:10;100190.47;;;29.19;41.02
76519;BME280;67029;51.054;13.798;2023-07-16T08:20:40;100186.72;;;29.23;41.24
76519;BME280;67029;51.054;13.798;2023-07-16T08:23:12;100181.22;;;29.30;41.33
76519;BME280;67029;51.054;13.798;2023-07-16T08:25:42;100192.46;;;29.28;40.10
76519;BME280;67029;51.054;13.798;2023-07-16T08:28:11;100206.02;;;29.18;40.34
76519;BME280;67029;51.054;13.798;2023-07-16T08:30:41;100207.58;;;29.08;40.54
76519;BME280;67029;51.054;13.798;2023-07-16T08:33:11;100211.62;;;29.21;40.39
76519;BME280;67029;51.054;13.798;2023-07-16T08:35:41;100219.09;;;29.30;40.32
76519;BME280;67029;51.054;13.798;2023-07-16T08:38:11;100221.46;;;29.44;40.60
76519;BME280;67029;51.054;13.798;2023-07-16T08:40:41;100227.89;;;29.68;40.04
76519;BME280;67029;51.054;13.798;2023-07-16T08:43:11;100220.05;;;29.90;39.94
76519;BME280;67029;51.054;13.798;2023-07-16T08:45:41;100220.47;;;30.11;40.01
76519;BME280;67029;51.054;13.798;2023-07-16T08:48:12;100211.52;;;30.27;39.26
76519;BME280;67029;51.054;13.798;2023-07-16T08:50:42;100215.63;;;30.43;38.52
76519;BME280;67029;51.054;13.798;2023-07-16T08:53:12;100216.95;;;30.58;38.98
76519;BME280;67029;51.054;13.798;2023-07-16T08:55:45;100224.94;;;30.73;38.09
76519;BME280;67029;51.054;13.798;2023-07-16T08:58:15;100223.58;;;30.65;38.26
76519;BME280;67029;51.054;13.798;2023-07-16T09:00:43;100229.53;;;30.60;37.77
76519;BME280;67029;51.054;13.798;2023-07-16T09:03:13;100224.01;;;30.69;37.65
76519;BME280;67029;51.054;13.798;2023-07-16T09:05:46;100232.69;;;30.79;37.00
76519;BME280;67029;51.054;13.798;2023-07-16T09:08:14;100240.40;;;30.81;37.13
76519;BME280;67029;51.054;13.798;2023-07-16T09:10:55;100241.30;;;30.90;37.46
76519;BME280;67029;51.054;13.798;2023-07-16T09:13:18;100243.47;;;30.99;37.18
76519;BME280;67029;51.054;13.798;2023-07-16T09:15:50;100244.59;;;31.06;37.26
76519;BME280;67029;51.054;13.798;2023-07-16T09:18:20;100250.48;;;31.16;37.25
76519;BME280;67029;51.054;13.798;2023-07-16T09:20:47;100257.14;;;31.14;36.68
76519;BME280;67029;51.054;13.798;2023-07-16T09:23:17;100259.30;;;31.25;36.68
76519;BME280;67029;51.054;13.798;2023-07-16T09:25:49;100259.66;;;31.35;36.58
76519;BME280;67029;51.054;13.798;2023-07-16T09:28:18;100254.49;;;31.50;36.65
76519;BME280;67029;51.054;13.798;2023-07-16T09:30:49;100247.66;;;31.70;36.53
76519;BME280;67029;51.054;13.798;2023-07-16T09:33:22;100247.22;;;31.97;36.15
76519;BME280;67029;51.054;13.798;2023-07-16T09:35:50;100245.60;;;32.19;35.02
76519;BME280;67029;51.054;13.798;2023-07-16T09:38:20;100248.36;;;32.20;34.88
76519;BME280;67029;51.054;13.798;2023-07-16T09:40:51;100253.17;;;32.33;35.34
76519;BME280;67029;51.054;13.798;2023-07-16T09:43:20;100254.45;;;32.38;34.12
76519;BME280;67029;51.054;13.798;2023-07-16T09:45:50;100255.06;;;32.25;33.54
76519;BME280;67029;51.054;13.798;2023-07-16T09:48:20;100247.48;;;32.25;32.86
76519;BME280;67029;51.054;13.798;2023-07-16T09:50:53;100244.52;;;32.33;33.01
76519;BME280;67029;51.054;13.798;2023-07-16T09:53:21;100247.75;;;32.25;32.59
76519;BME280;67029;51.054;13.798;2023-07-16T09:55:52;100249.45;;;32.10;31.31
76519;BME280;67029;51.054;13.798;2023-07-16T09:58:23;100246.23;;;31.91;32.24
76519;BME280;67029;51.054;13.798;2023-07-16T10:00:52;100246.70;;;31.91;32.21
76519;BME280;67029;51.054;13.798;2023-07-16T10:03:22;100253.11;;;32.07;31.49
76519;BME280;67029;51.054;13.798;2023-07-16T10:05:52;100262.12;;;32.27;31.10
76519;BME280;67029;51.054;13.798;2023-07-16T10:08:22;100258.95;;;32.49;30.53
76519;BME280;67029;51.054;13.798;2023-07-16T10:10:56;100275.64;;;32.63;30.01
76519;BME280;67029;51.054;13.798;2023-07-16T10:13:24;100271.47;;;32.78;30.61
76519;BME280;67029;51.054;13.798;2023-07-16T10:15:58;100257.97;;;32.86;29.72
76519;BME280;67029;51.054;13.798;2023-07-16T10:18:28;100260.95;;;32.89;30.13
76519;BME280;67029;51.054;13.798;2023-07-16T10:21:03;100255.97;;;32.92;30.21
76519;BME280;67029;51.054;13.798;2023-07-16T10:23:25;100263.19;;;33.03;29.80
76519;BME280;67029;51.054;13.798;2023-07-16T10:26:00;100268.09;;;33.12;29.64
76519;BME280;67029;51.054;13.798;2023-07-16T10:28:27;100261.95;;;33.01;29.24
76519;BME280;67029;51.054;13.798;2023-07-16T10:30:57;100265.62;;;33.01;29.24
76519;BME280;67029;51.054;13.798;2023-07-16T10:33:27;100266.12;;;33.14;29.99
76519;BME280;67029;51.054;13.798;2023-07-16T10:35:57;100265.86;;;33.22;29.62
76519;BME280;67029;51.054;13.798;2023-07-16T10:38:28;100269.52;;;33.46;30.19
76519;BME280;67029;51.054;13.798;2023-07-16T10:40:57;100282.62;;;33.78;29.17
76519;BME280;67029;51.054;13.798;2023-07-16T10:43:28;100278.34;;;34.04;29.19
76519;BME280;67029;51.054;13.798;2023-07-16T10:45:58;100284.44;;;34.26;27.92
76519;BME280;67029;51.054;13.798;2023-07-16T10:48:29;100276.64;;;34.43;26.35
76519;BME280;67029;51.054;13.798;2023-07-16T10:50:58;100271.31;;;34.58;27.27
76519;BME280;67029;51.054;13.798;2023-07-16T10:53:28;100273.00;;;34.73;26.65
76519;BME280;67029;51.054;13.798;2023-07-16T10:55:58;100286.83;;;34.93;25.92
76519;BME280;67029;51.054;13.798;2023-07-16T10:58:28;100278.00;;;35.02;26.10
76519;BME280;67029;51.054;13.798;2023-07-16T11:00:58;100274.19;;;35.25;25.83
76519;BME280;67029;51.054;13.798;2023-07-16T11:03:28;100278.47;;;35.39;25.67
76519;BME280;67029;51.054;13.798;2023-07-16T11:06:06;100270.39;;;35.46;25.65
76519;BME280;67029;51.054;13.798;2023-07-16T11:08:29;100273.42;;;35.60;25.84
76519;BME280;67029;51.054;13.798;2023-07-16T11:10:59;100268.52;;;35.58;25.97
76519;BME280;67029;51.054;13.798;2023-07-16T11:13:32;100262.81;;;35.61;25.32
76519;BME280;67029;51.054;13.798;2023-07-16T11:16:09;100264.38;;;35.64;26.02
76519;BME280;67029;51.054;13.798;2023-07-16T11:18:31;100265.16;;;35.73;25.96
76519;BME280;67029;51.054;13.798;2023-07-16T11:21:00;100263.64;;;35.81;25.89
76519;BME280;67029;51.054;13.798;2023-07-16T11:23:34;100270.42;;;35.86;25.49
76519;BME280;67029;51.054;13.798;2023-07-16T11:26:02;100270.38;;;35.80;25.21
76519;BME280;67029;51.054;13.798;2023-07-16T11:28:36;100267.19;;;35.76;25.21
76519;BME280;67029;51.054;13.798;2023-07-16T11:31:15;100272.30;;;35.66;25.73
76519;BME280;67029;51.054;13.798;2023-07-16T11:33:36;100275.48;;;35.73;25.19
76519;BME280;67029;51.054;13.798;2023-07-16T11:36:04;100269.59;;;35.68;24.98
76519;BME280;67029;51.054;13.798;2023-07-16T11:38:37;100269.68;;;35.71;25.08
76519;BME280;67029;51.054;13.798;2023-07-16T11:41:05;100267.81;;;35.81;25.53
76519;BME280;67029;51.054;13.798;2023-07-16T11:43:35;100257.09;;;35.79;25.55
76519;BME280;67029;51.054;13.798;2023-07-16T11:46:16;100252.31;;;35.75;25.03
76519;BME280;67029;51.054;13.798;2023-07-16T11:48:36;100247.91;;;35.61;25.67
76519;BME280;67029;51.054;13.798;2023-07-16T11:51:06;100243.73;;;35.72;25.96
76519;BME280;67029;51.054;13.798;2023-07-16T11:53:36;100243.27;;;35.95;25.43
76519;BME280;67029;51.054;13.798;2023-07-16T11:56:06;100233.84;;;36.28;25.35
76519;BME280;67029;51.054;13.798;2023-07-16T11:58:36;100233.94;;;36.52;25.57
76519;BME280;67029;51.054;13.798;2023-07-16T12:01:07;100237.18;;;36.86;25.46
76519;BME280;67029;51.054;13.798;2023-07-16T12:03:37;100227.66;;;37.13;24.11
76519;BME280;67029;51.054;13.798;2023-07-16T12:06:07;100233.74;;;37.19;24.13
76519;BME280;67029;51.054;13.798;2023-07-16T12:08:37;100232.69;;;37.31;24.30
76519;BME280;67029;51.054;13.798;2023-07-16T12:11:07;100232.27;;;37.48;24.29
76519;BME280;67029;51.054;13.798;2023-07-16T12:13:38;100227.33;;;37.48;23.31
76519;BME280;67029;51.054;13.798;2023-07-16T12:16:08;100230.42;;;37.42;22.94
76519;BME280;67029;51.054;13.798;2023-07-16T12:18:38;100238.41;;;37.37;23.15
76519;BME280;67029;51.054;13.798;2023-07-16T12:21:08;100247.23;;;37.27;23.40
76519;BME280;67029;51.054;13.798;2023-07-16T12:23:38;100239.52;;;37.17;23.49
76519;BME280;67029;51.054;13.798;2023-07-16T12:26:08;100231.86;;;37.28;23.79
76519;BME280;67029;51.054;13.798;2023-07-16T12:28:38;100234.08;;;37.40;24.07
76519;BME280;67029;51.054;13.798;2023-07-16T12:31:08;100228.52;;;37.46;23.49
76519;BME280;67029;51.054;13.798;2023-07-16T12:33:38;100224.95;;;37.50;23.46
76519;BME280;67029;51.054;13.798;2023-07-16T12:36:08;100230.04;;;37.55;23.68
76519;BME280;67029;51.054;13.798;2023-07-16T12:38:38;100232.11;;;37.65;23.43
76519;BME280;67029;51.054;13.798;2023-07-16T12:41:08;100230.80;;;37.47;23.34
76519;BME280;67029;51.054;13.798;2023-07-16T12:43:38;100225.65;;;37.50;23.72
76519;BME280;67029;51.054;13.798;2023-07-16T12:46:08;100224.88;;;37.55;23.38
76519;BME280;67029;51.054;13.798;2023-07-16T12:48:38;100230.64;;;37.55;23.45
76519;BME280;67029;51.054;13.798;2023-07-16T12:51:09;100231.27;;;37.63;23.20
76519;BME280;67029;51.054;13.798;2023-07-16T12:53:39;100232.20;;;37.74;23.02
76519;BME280;67029;51.054;13.798;2023-07-16T12:56:09;100227.67;;;37.92;23.04
76519;BME280;67029;51.054;13.798;2023-07-16T12:58:39;100220.48;;;38.18;23.50